Αρχική σελίδα
METAR-TAF:

METAR-TAF

Αεροδρόμια :

Lincoln Airport

Lincoln, Νεμπράσκα, Ηνωμένες Πολιτείες Αμερικής

γεωγραφικό πλάτος: 40-49-52N, γεωγραφικό μήκος: 096-45-52W, υψόμετρο: 370 μ

Παρών καιρός

Η αναφορά έγινε 17 λεπτά πριν, στις 00:54 UTC
Άνεμος 9 kt από Ν
Θερμοκρασία 12°C
Υγρασία 67%
Πίεση 1017 hPa
Ορατότητα: 16.1 χλμ
Καθαρός ουρανός

METAR: KLNK 220054Z 18009KT 10SM CLR 12/06 A3002 RMK AO2 SLP170 T01170056

Χρόνος: 20:11 (01:11 UTC)

Πρόγνωση Καιρού

Η αναφορά έγινε 1 ώρα και 42 λεπτά πριν, στις 23:29 UTC
Η πρόγνωση ισχύει από τις 22 στις 00 UTC έως τις 22 στις 24 UTC
Άνεμος 10 kt από Ν/ΝΔ
Ορατότητα: 10 χλμ
Καθαρός ουρανός
Από 22 στις 0600 UTC
Άνεμος 5 kt από Δ/ΝΔ
Ορατότητα: 10 χλμ
Καθαρός ουρανός
Από 22 στις 1000 UTC
Άνεμος 8 kt από Β
Ορατότητα: 10 χλμ
Καθαρός ουρανός

TAF: KLNK 212329Z 2200/2224 21010KT P6SM SKC WS012/24042KT FM220600 25005KT P6SM SKC FM221000 36008KT P6SM SKC

Μετεωρολογικές αναφορές και προγνώσεις για περισσότερα από 4000 αεροδρόμια (δελτία METAR και TAF).

Οι διαθέσιμοι σταθμοί απεικονίζονται στο χάρτη με κίτρινες και κόκκινες κουκκίδες.

Μετακινήστε το ποντίκι πάνω από τις κουκκίδες για να δείτε το όνομα του σταθμού.

Στη συνέχεια, κάντε κλικ για να δείτε τις μετεωρολογικές αναφορές και τις προγνώσεις καιρού.

Για να αλλάξετε το χάρτη: κάντε κλικ στα πράσινα κουμπιά με τον μαύρο σταυρό για να ζουμάρετε, στο πράσινο κουμπί με την παύλα για να αφαιρέσετε το ζουμ ή στα πράσινα βέλη για να αντιπαραβάλλετε χάρτες.


METAR-TAF: